Alta, Wyoming
Current Conditions -  °F | °C
As of 12:56 AM on Wednesday 22 Oct 2014 (Local Time) from KDIJ Reporting Station
Overcast Overcast  
Wind Chill:   Ceiling: 3200
Heat Index:   Visibility: 10mi
Dew Point:   Wind: 6mph
Humidity: 79%   Direction: 210°SSW
Pressure: 30.13"   Gusts: NA
Location:  43.77°N, 110.98°W
Report Text: KDIJ 220656Z AUTO 21005KT 10SM OVC032 03/00 A3013 RMK AO2 T00330000 SLP178
Loading
Personal Weather Stations






























Interactive Weather Map
Tropical Storm Tracking
New forecast layout! Learn more

10-Day Weather Forecast

Advertisements
Track Severe Weather on mobile